TS55 weather

Bat Cave Field
Garden Ridge, Texas, United States

Public forecast

Using degrees Fahrenheit for public forecast. Weather courtesy of forecast.io.

METAR (pilot weather report)

Closest report is Randolph Air Force Base, 8.6 nm (16.0 km) S. Retrieved 2019/07/18 00:56 UTC (46 minutes ago):

KRND 180056Z AUTO 15012KT 10SM CLR 32/22 A2996 RMK AO2 SLP136 T03190217

TAF (pilot weather forecast)

Closest forecast is Randolph Air Force Base, 8.6 nm (16.0 km) S. Retrieved 2019/07/17 21:30 UTC (4 hours ago):

TAF KRND 172109Z 1721/1823 16012G20KT 9999 FEW030 QNH2995INS TEMPO 1722/1804 15015G25KT BECMG 1804/1805 15009KT 9999 FEW050 QNH2995INS BECMG 1812/1813 16009KT 9999 BKN015 QNH2998INS BECMG 1814/1815 17012G20KT 9999 FEW030 QNH3000INS TX36/1722Z TN24/1812Z LAST NO AMDS AFT 1800 NEXT 1809